createdAt,value
2023-12-07T00:01:00.796Z,97.8
2023-12-07T00:06:56.326Z,98.2
2023-12-07T00:12:51.454Z,99.6
2023-12-07T00:18:44.908Z,99
2023-12-07T00:24:38.099Z,98.6
2023-12-07T00:30:30.231Z,98.6
2023-12-07T00:36:27.434Z,98.1
2023-12-07T00:42:22.486Z,98.5
2023-12-07T00:48:19.694Z,98.9
2023-12-07T00:54:11.975Z,99.3
2023-12-07T01:00:07.647Z,99.8
2023-12-07T01:06:00.893Z,100
2023-12-07T01:11:56.192Z,100
2023-12-07T01:17:50.858Z,100
2023-12-07T01:24:10.544Z,100
2023-12-07T01:30:10.069Z,100
2023-12-07T01:36:03.885Z,100
2023-12-07T01:41:57.299Z,100
2023-12-07T01:47:50.394Z,100
2023-12-07T01:53:45.893Z,100
2023-12-07T01:59:38.319Z,100
2023-12-07T02:05:30.697Z,100
2023-12-07T02:11:24.695Z,100
2023-12-07T02:17:17.134Z,100
2023-12-07T02:23:09.828Z,100
2023-12-07T02:29:02.147Z,100
2023-12-07T02:34:54.909Z,100
2023-12-07T02:40:47.290Z,100
2023-12-07T02:46:40.717Z,100
2023-12-07T02:52:33.436Z,100
2023-12-07T02:58:26.435Z,100
2023-12-07T03:04:20.067Z,100
2023-12-07T03:10:13.697Z,99.8
2023-12-07T03:16:05.760Z,100
2023-12-07T03:21:58.060Z,100
2023-12-07T03:27:51.596Z,100
2023-12-07T03:34:53.014Z,100
2023-12-07T03:40:44.696Z,100
2023-12-07T03:46:41.420Z,100
2023-12-07T03:52:33.496Z,100
2023-12-07T03:58:25.484Z,100
2023-12-07T04:04:18.111Z,100
2023-12-07T04:10:11.048Z,100
2023-12-07T04:16:06.939Z,100
2023-12-07T04:21:59.757Z,100
2023-12-07T04:27:52.166Z,100
2023-12-07T04:33:46.729Z,100
2023-12-07T04:39:39.805Z,100
2023-12-07T04:45:32.634Z,100
2023-12-07T04:51:24.977Z,100
2023-12-07T04:58:28.536Z,100
2023-12-07T05:05:29.447Z,100
2023-12-07T05:11:21.656Z,100
2023-12-07T05:17:14.087Z,100
2023-12-07T05:23:06.334Z,100
2023-12-07T05:28:59.180Z,100
2023-12-07T05:34:52.370Z,100
2023-12-07T05:40:45.149Z,100
2023-12-07T05:46:37.728Z,100
2023-12-07T05:52:31.209Z,100
2023-12-07T05:58:23.429Z,100
2023-12-07T06:04:16.393Z,100
2023-12-07T06:10:08.833Z,100
2023-12-07T06:16:01.242Z,100
2023-12-07T06:21:54.067Z,100
2023-12-07T06:27:47.268Z,100
2023-12-07T06:33:41.300Z,100
2023-12-07T06:39:33.928Z,100
2023-12-07T06:45:26.194Z,100
2023-12-07T06:51:18.385Z,100
2023-12-07T06:57:10.959Z,100
2023-12-07T07:03:03.509Z,100
2023-12-07T07:09:00.833Z,100
2023-12-07T07:14:54.542Z,100
2023-12-07T07:20:46.378Z,100
2023-12-07T07:26:39.328Z,100
2023-12-07T07:32:32.001Z,100
2023-12-07T07:38:24.921Z,100
2023-12-07T07:44:17.110Z,100
2023-12-07T07:50:10.247Z,100
2023-12-07T07:56:02.558Z,100
2023-12-07T08:01:53.500Z,100
2023-12-07T08:07:46.242Z,100
2023-12-07T08:13:38.356Z,100
2023-12-07T08:19:31.255Z,100
2023-12-07T08:25:24.099Z,100
2023-12-07T08:31:17.069Z,100
2023-12-07T08:37:10.163Z,100
2023-12-07T08:43:04.252Z,100
2023-12-07T08:50:06.647Z,100
2023-12-07T08:55:58.151Z,100
2023-12-07T09:01:50.549Z,100
2023-12-07T09:07:43.891Z,100
2023-12-07T09:13:36.667Z,100
2023-12-07T09:19:30.787Z,100
2023-12-07T09:25:24.688Z,100
2023-12-07T09:32:36.695Z,100
2023-12-07T09:38:29.653Z,100
2023-12-07T09:44:23.542Z,100
2023-12-07T09:50:27.644Z,100
2023-12-07T10:00:01.629Z,100
2023-12-07T10:05:51.166Z,100
2023-12-07T10:11:46.727Z,100
2023-12-07T10:17:40.424Z,100
2023-12-07T10:23:35.070Z,100
2023-12-07T10:29:35.393Z,100
2023-12-07T10:35:27.016Z,99.5
2023-12-07T10:41:21.904Z,99.5
2023-12-07T10:47:14.952Z,98.5
2023-12-07T10:53:07.909Z,98.5
2023-12-07T10:59:00.321Z,98.4
2023-12-07T11:04:53.497Z,98.6
2023-12-07T11:10:45.717Z,98
2023-12-07T11:16:38.412Z,97.7
2023-12-07T11:22:32.468Z,97.4
2023-12-07T11:28:26.064Z,97.6
2023-12-07T11:34:18.827Z,98.1
2023-12-07T11:40:11.656Z,98
2023-12-07T11:46:04.151Z,98.1
2023-12-07T11:51:55.724Z,97.5
2023-12-07T11:57:47.887Z,96.7
2023-12-07T12:03:40.397Z,96.7
2023-12-07T12:09:37.635Z,96.2
2023-12-07T12:15:31.054Z,95.7
2023-12-07T12:21:24.749Z,95.7
2023-12-07T12:27:17.680Z,96.1
2023-12-07T12:33:10.583Z,96
2023-12-07T12:39:03.044Z,95.4
2023-12-07T12:45:00.851Z,94.9
2023-12-07T12:50:53.540Z,94.8
2023-12-07T12:56:47.703Z,95.2
2023-12-07T13:02:40.409Z,94.5
2023-12-07T13:08:33.091Z,94.8
2023-12-07T13:14:24.503Z,94.6
2023-12-07T13:20:19.018Z,95
2023-12-07T13:26:12.046Z,95
2023-12-07T13:32:05.219Z,95
2023-12-07T13:37:57.694Z,94.8
2023-12-07T13:43:51.712Z,95.1
2023-12-07T13:49:44.219Z,95.2
2023-12-07T13:55:37.574Z,95.1
2023-12-07T14:01:31.095Z,95.1
2023-12-07T14:07:25.484Z,95
2023-12-07T14:13:19.265Z,95.2
2023-12-07T14:25:08.515Z,94.8
2023-12-07T14:31:00.823Z,94.8
2023-12-07T14:36:53.012Z,95
2023-12-07T14:42:44.792Z,95.4
2023-12-07T14:48:36.504Z,95.9
2023-12-07T14:54:32.579Z,95.7
2023-12-07T15:00:24.686Z,95.1
2023-12-07T15:06:17.105Z,96.4
2023-12-07T15:12:11.944Z,97.3
2023-12-07T15:18:03.715Z,97.9
2023-12-07T15:23:57.793Z,98.4
2023-12-07T15:29:51.090Z,98.4
2023-12-07T15:35:42.973Z,97.9
2023-12-07T15:41:33.993Z,98.2
2023-12-07T15:47:26.095Z,97.6
2023-12-07T15:53:20.332Z,98.5
2023-12-07T15:59:12.932Z,98.4
2023-12-07T16:05:04.863Z,98.5
2023-12-07T16:10:57.201Z,98.3
2023-12-07T16:16:49.521Z,98.9
2023-12-07T16:22:41.666Z,99.2
2023-12-07T16:28:33.791Z,99.7
2023-12-07T16:34:25.684Z,99.6
2023-12-07T16:40:18.595Z,99.5
2023-12-07T16:46:14.809Z,99.5
2023-12-07T16:52:06.765Z,99.6
2023-12-07T16:58:01.760Z,99.6
2023-12-07T17:03:54.722Z,99.9
2023-12-07T17:09:50.408Z,99.7
2023-12-07T17:15:45.622Z,99
2023-12-07T17:21:41.599Z,99
2023-12-07T17:27:35.491Z,99.1
2023-12-07T17:33:27.900Z,98.8
2023-12-07T17:39:24.169Z,98.7
2023-12-07T17:45:18.160Z,99.5
2023-12-07T17:51:12.584Z,98.7
2023-12-07T17:57:03.738Z,99.1
2023-12-07T18:02:55.973Z,97.9
2023-12-07T18:08:48.646Z,98.3
2023-12-07T18:14:40.004Z,97.8
2023-12-07T18:20:32.579Z,97.1
2023-12-07T18:26:24.679Z,97.4
2023-12-07T18:32:17.321Z,97.5
2023-12-07T18:38:09.301Z,97.7
2023-12-07T18:44:01.987Z,97.7
2023-12-07T18:49:53.987Z,97.8
2023-12-07T18:55:45.625Z,97.8
2023-12-07T19:01:36.957Z,97.7
2023-12-07T19:07:29.540Z,97.1
2023-12-07T19:13:19.982Z,96.8
2023-12-07T19:19:12.279Z,97
2023-12-07T19:25:04.734Z,97.6
2023-12-07T19:30:56.882Z,97.3
2023-12-07T19:36:49.254Z,97.2
2023-12-07T19:42:43.700Z,97
2023-12-07T19:48:35.270Z,96.7
2023-12-07T19:54:34.180Z,97
2023-12-07T20:00:25.231Z,97.1
2023-12-07T20:06:28.057Z,96.8
2023-12-07T20:12:28.619Z,96.9
2023-12-07T20:18:20.881Z,96.8
2023-12-07T20:24:14.030Z,97
2023-12-07T20:30:07.012Z,96.8
2023-12-07T20:35:59.313Z,97.3
2023-12-07T20:41:51.338Z,97.4
2023-12-07T20:47:43.802Z,97.9
2023-12-07T20:53:36.327Z,97.9
2023-12-07T20:59:28.541Z,97.7
2023-12-07T21:05:20.705Z,96.8
2023-12-07T21:11:12.516Z,97.2
2023-12-07T21:17:04.692Z,96.9
2023-12-07T21:22:56.072Z,97.1
2023-12-07T21:28:46.227Z,97.1
2023-12-07T21:34:38.208Z,97.3
2023-12-07T21:40:30.424Z,96.8
2023-12-07T21:46:20.500Z,96.3
2023-12-07T21:52:11.949Z,96.1
2023-12-07T21:58:04.302Z,95.5
2023-12-07T22:03:55.941Z,94.9
2023-12-07T22:09:47.575Z,95.2
2023-12-07T22:15:40.343Z,94.8
2023-12-07T22:21:32.041Z,94.3
2023-12-07T22:27:24.013Z,94.1
2023-12-07T22:33:17.004Z,93.7
2023-12-07T22:39:09.586Z,93.3
2023-12-07T22:45:02.496Z,93.3
2023-12-07T22:50:54.825Z,93.4
2023-12-07T22:56:46.954Z,92.9
2023-12-07T23:02:39.366Z,92.3
2023-12-07T23:08:30.954Z,92.6
2023-12-07T23:14:23.030Z,92.5
2023-12-07T23:20:16.763Z,91.8
2023-12-07T23:26:08.062Z,90.6
2023-12-07T23:31:58.313Z,90.4
2023-12-07T23:37:47.975Z,89.9
2023-12-07T23:43:42.656Z,89.5
2023-12-07T23:49:36.346Z,89.3
2023-12-07T23:55:28.224Z,89.2
